KDLZKLOM

Guest
Details From KDLZ - DELAWARE MUNI
To KLOM - Wings Field
Flight Number -
Tags generated
Created
Modified
Stats Distance 360 nm / 667 km
Max Altitude 35,000 ft / 10,668 m
Waypoints 8
Social Downloads 6
Likes 0
Share

Download

Looking for another format? Having issues loading an existing format? Contact us
Advertisement - Login to hide

Notes

Basic altitude profile: - Ascent Rate: 1200ft/min - Ascent Speed: 100kts - Cruise Altitude: 17500ft - Cruise Speed: 220kts - Descent Rate: 1000ft/min - Descent Speed: 175kts Options: - Use NATs: yes - Use PACOTS: yes - Use low airways: no - Use high airways: yes

Route

KDLZ BLISS J152 LOMON KLOM

ID Type Via Altitude (ft/m) Position (lat/lon) Dist (leg/tot) Name
O KDLZ APT - 0 / 0 40.27970 / -83.11480 - / 0 nm DELAWARE MUNI
BLISS FIX - 17,700 / 5,395 40.32740 / -81.97272 52 / 52 nm
AVERE FIX J152 (AWY-HI) 35,000 / 10,668 40.33104 / -80.05732 87 / 140 nm
JST VOR J152 (AWY-HI) 35,000 / 10,668 40.31672 / -78.83417 56 / 196 nm JOHNSTOWN VORTAC
MIROY FIX J152 (AWY-HI) 29,400 / 8,961 40.31548 / -78.35742 21 / 217 nm
COFAX FIX J152 (AWY-HI) 25,600 / 7,803 40.31298 / -77.96694 17 / 235 nm
LOMON FIX J152 (AWY-HI) 21,900 / 6,675 40.30807 / -77.48340 22 / 257 nm
O KLOM APT - 0 / 0 40.13756 / -75.26513 102 / 360 nm Wings Field

Altitude Profile

Advertisement - Login to hide

Weather


0- 5 10 15 20 25 30 35+ Temperature / °C

Clouds and Precipitation
Forecast for 2021-07-26 12:00 UTC. Updated 9 hours ago

Ground ~20,000 ft ~40,000 ft Winds

KDLZ

Details ICAO KDLZ
Name Delaware Municipal
Region United States
Timezone America/New_York (UTC-4.0)
Stats Elevation 943 ft / 287 m (AMSL)
Location 40.279700° -83.114800°
Runways 1
Magnetic Variation 7.237° W

METAR

KDLZ 261835Z AUTO 34005KT 10SM SCT060 31/18 A3003 RMK AO2

Decode

TAF

Not found

Departure Runways

ID Width Length Bearing (true/mag) Surface Threshold Overrun Markings Lighting
10 100 ft / 30 m 4,989 ft / 1,521 m 98.37° / 105.60° ASPHALT 0 ft / 0 m 0 ft / 0 m APP EDGE THRESHOLD REIL-OMNI
28 100 ft / 30 m 4,989 ft / 1,521 m 278.38° / 285.62° ASPHALT 0 ft / 0 m 0 ft / 0 m APP EDGE THRESHOLD REIL-OMNI

KLOM

Details ICAO KLOM (BBX)
Name Wings Field
Region United States
Timezone America/New_York (UTC-4.0)
Stats Elevation 301 ft / 92 m (AMSL)
Location 40.137600° -75.265100°
Runways 1
Magnetic Variation 12.059° W

METAR

KLOM 261835Z AUTO 00000KT 10SM SCT070 SCT080 31/18 A2993 RMK AO2 T03120181

Decode

TAF

Not found

Destination Runways

ID Width Length Bearing (true/mag) Surface Threshold Overrun Markings Lighting
06 75 ft / 23 m 3,704 ft / 1,129 m 53.00° / 65.06° ASPHALT 177 ft / 54 m 98 ft / 30 m APP CENTERLINE EDGE THRESHOLD
24 75 ft / 23 m 3,704 ft / 1,129 m 233.00° / 245.06° ASPHALT 0 ft / 0 m 0 ft / 0 m APP CENTERLINE EDGE THRESHOLD

Popular Alternatives